Time;durP1;ratioP1;P1;durP2;ratioP2;P2;SDS_P1;SDS_P2;PMS_P1;PMS_P2;Temp;Humidity;BMP_temperature;BMP_pressure;BME280_temperature;BME280_humidity;BME280_pressure;Samples;Min_cycle;Max_cycle;Signal;HPM_P1;HPM_P2
2023/08/28 00:02:16;;;;;;;2.37;0.90;;;;;;;;;;4916883;29;20491;-72
2023/08/28 00:04:45;;;;;;;2.30;1.20;;;;;;;;;;4916966;29;20986;-72
2023/08/28 00:07:13;;;;;;;2.40;1.20;;;;;;;;;;4917118;29;20836;-72
2023/08/28 00:09:40;;;;;;;2.30;0.93;;;;;;;;;;4919803;29;20469;-72
2023/08/28 00:12:08;;;;;;;2.03;0.83;;;;;;;;;;4922043;29;20449;-72
2023/08/28 00:14:35;;;;;;;2.03;0.90;;;;;;;;;;4918851;29;20485;-72
2023/08/28 00:17:04;;;;;;;2.10;0.90;;;;;;;;;;4917276;29;20472;-72
2023/08/28 00:19:32;;;;;;;2.10;0.90;;;;;;;;;;4916745;29;20461;-72
2023/08/28 00:22:00;;;;;;;1.70;0.80;;;;;;;;;;4916559;29;20560;-72
2023/08/28 00:24:27;;;;;;;2.13;0.83;;;;;;;;;;4916791;29;20453;-72
2023/08/28 00:26:54;;;;;;;2.20;1.03;;;;;;;;;;4917233;29;20487;-72
2023/08/28 00:29:21;;;;;;;5.60;1.10;;;;;;;;;;4917300;29;20472;-72
2023/08/28 00:31:49;;;;;;;3.67;1.57;;;;;;;;;;4917335;29;20445;-72
2023/08/28 00:34:16;;;;;;;10.40;1.03;;;;;;;;;;4907686;29;20449;-72
2023/08/28 00:36:43;;;;;;;2.87;1.00;;;;;;;;;;4913456;29;20825;-72
2023/08/28 00:39:12;;;;;;;2.30;0.90;;;;;;;;;;4917351;29;20524;-72
2023/08/28 00:41:39;;;;;;;1.97;0.90;;;;;;;;;;4916246;29;20485;-73
2023/08/28 00:44:06;;;;;;;1.90;1.00;;;;;;;;;;4916382;29;20906;-72
2023/08/28 00:46:33;;;;;;;2.20;1.13;;;;;;;;;;4916849;29;20888;-72
2023/08/28 00:49:00;;;;;;;2.00;0.90;;;;;;;;;;4916978;29;20465;-72
2023/08/28 00:51:28;;;;;;;2.10;0.93;;;;;;;;;;4916846;29;20833;-72
2023/08/28 00:53:55;;;;;;;1.73;0.70;;;;;;;;;;4914802;29;20539;-72
2023/08/28 00:56:24;;;;;;;2.27;1.20;;;;;;;;;;4917118;29;20453;-72
2023/08/28 00:58:51;;;;;;;2.13;0.90;;;;;;;;;;4916494;29;20995;-72
2023/08/28 01:01:18;;;;;;;2.10;1.00;;;;;;;;;;4915198;29;20459;-72
2023/08/28 01:03:45;;;;;;;2.30;0.83;;;;;;;;;;4916701;29;20456;-73
2023/08/28 01:06:17;;;;;;;2.10;1.07;;;;;;;;;;4916174;29;20970;-72
2023/08/28 01:08:55;;;;;;;2.70;0.90;;;;;;;;;;4916438;29;20834;-72
2023/08/28 01:11:27;;;;;;;2.20;1.00;;;;;;;;;;4902761;29;20452;-72
2023/08/28 01:13:58;;;;;;;1.80;0.77;;;;;;;;;;4915666;29;20437;-72
2023/08/28 01:16:28;;;;;;;2.07;0.93;;;;;;;;;;4916486;29;20512;-72
2023/08/28 01:18:55;;;;;;;2.23;0.90;;;;;;;;;;4912465;29;20461;-72
2023/08/28 01:21:23;;;;;;;2.00;1.10;;;;;;;;;;4906485;29;20521;-72
2023/08/28 01:23:56;;;;;;;2.10;1.03;;;;;;;;;;4913479;29;20479;-72
2023/08/28 01:26:25;;;;;;;2.77;1.30;;;;;;;;;;4905170;29;20471;-72
2023/08/28 01:28:52;;;;;;;2.33;1.17;;;;;;;;;;4915842;29;20468;-72
2023/08/28 01:31:19;;;;;;;2.00;0.80;;;;;;;;;;4915854;29;20449;-73
2023/08/28 01:33:46;;;;;;;2.90;1.10;;;;;;;;;;4915574;29;20440;-72
2023/08/28 01:36:14;;;;;;;2.90;1.10;;;;;;;;;;4915395;29;20451;-72
2023/08/28 01:38:43;;;;;;;2.07;0.80;;;;;;;;;;4914934;29;20480;-72
2023/08/28 01:41:11;;;;;;;2.43;1.13;;;;;;;;;;4916065;29;20448;-71
2023/08/28 01:43:40;;;;;;;1.90;1.00;;;;;;;;;;4915917;29;20497;-72
2023/08/28 01:46:07;;;;;;;2.60;1.30;;;;;;;;;;4916145;29;20513;-72
2023/08/28 01:48:35;;;;;;;2.40;0.83;;;;;;;;;;4914293;29;20468;-72
2023/08/28 01:51:02;;;;;;;2.60;0.87;;;;;;;;;;4915862;29;20960;-72
2023/08/28 01:53:30;;;;;;;2.83;1.13;;;;;;;;;;4914537;29;20475;-72
2023/08/28 01:56:16;;;;;;;2.33;1.10;;;;;;;;;;4909103;29;20449;-73
2023/08/28 01:58:45;;;;;;;2.40;0.90;;;;;;;;;;4915567;29;20893;-72
2023/08/28 02:01:12;;;;;;;2.00;0.83;;;;;;;;;;4915653;29;20456;-72
2023/08/28 02:03:40;;;;;;;2.13;0.87;;;;;;;;;;4915358;29;20495;-72
2023/08/28 02:06:07;;;;;;;2.00;0.83;;;;;;;;;;4915457;29;20445;-72
2023/08/28 02:08:34;;;;;;;2.17;1.00;;;;;;;;;;4913578;29;20483;-72
2023/08/28 02:11:01;;;;;;;2.37;0.90;;;;;;;;;;4915583;29;20458;-72
2023/08/28 02:13:28;;;;;;;2.00;0.90;;;;;;;;;;4914765;29;20444;-72
2023/08/28 02:15:57;;;;;;;2.30;1.00;;;;;;;;;;4915231;29;20475;-73
2023/08/28 02:18:24;;;;;;;2.10;0.80;;;;;;;;;;4915292;29;20479;-72
2023/08/28 02:20:51;;;;;;;7.83;1.47;;;;;;;;;;4915221;29;20904;-72
2023/08/28 02:23:19;;;;;;;2.20;1.00;;;;;;;;;;4915345;29;21041;-72
2023/08/28 02:25:47;;;;;;;2.37;1.13;;;;;;;;;;4918285;29;20543;-72
2023/08/28 02:28:14;;;;;;;1.90;0.73;;;;;;;;;;4919032;29;20456;-72
2023/08/28 02:30:41;;;;;;;1.83;0.77;;;;;;;;;;4906457;29;20448;-72
2023/08/28 02:33:10;;;;;;;2.20;1.10;;;;;;;;;;4918887;29;20475;-72
2023/08/28 02:35:37;;;;;;;1.90;0.80;;;;;;;;;;4918479;29;20440;-72
2023/08/28 02:38:08;;;;;;;3.50;0.80;;;;;;;;;;4919057;29;20465;-72
2023/08/28 02:40:35;;;;;;;2.20;0.87;;;;;;;;;;4919300;29;20472;-72
2023/08/28 02:43:05;;;;;;;2.17;0.93;;;;;;;;;;4916852;29;20484;-72
2023/08/28 02:45:33;;;;;;;2.03;0.97;;;;;;;;;;4918639;29;20455;-72
2023/08/28 02:48:00;;;;;;;2.30;0.90;;;;;;;;;;4918776;29;20452;-72
2023/08/28 02:50:29;;;;;;;2.40;1.10;;;;;;;;;;4918204;29;20479;-72
2023/08/28 02:52:56;;;;;;;2.83;0.70;;;;;;;;;;4918298;29;21050;-71
2023/08/28 02:55:23;;;;;;;2.33;0.90;;;;;;;;;;4918355;29;20451;-72
2023/08/28 02:57:50;;;;;;;2.47;1.10;;;;;;;;;;4918721;29;20444;-72
2023/08/28 03:00:18;;;;;;;2.10;1.00;;;;;;;;;;4918950;29;20535;-72
2023/08/28 03:02:45;;;;;;;2.30;0.90;;;;;;;;;;4918134;29;20548;-72
2023/08/28 03:05:13;;;;;;;2.20;1.27;;;;;;;;;;4919014;29;20476;-72
2023/08/28 03:07:41;;;;;;;3.17;1.70;;;;;;;;;;4918781;29;20460;-71
2023/08/28 03:10:09;;;;;;;1.83;0.93;;;;;;;;;;4918584;29;20463;-72
2023/08/28 03:12:36;;;;;;;2.53;0.90;;;;;;;;;;4918369;29;21007;-72
2023/08/28 03:15:04;;;;;;;1.90;0.80;;;;;;;;;;5250555;23;20899;-71
2023/08/28 03:17:31;;;;;;;2.80;1.13;;;;;;;;;;4936463;29;20443;-70
2023/08/28 03:19:59;;;;;;;2.30;0.70;;;;;;;;;;4921761;29;20496;-70
2023/08/28 03:22:26;;;;;;;4.53;1.90;;;;;;;;;;4917097;29;20840;-70
2023/08/28 03:24:54;;;;;;;1.80;0.80;;;;;;;;;;4917131;29;20931;-71
2023/08/28 03:27:21;;;;;;;1.80;0.70;;;;;;;;;;4917236;29;20508;-70
2023/08/28 03:29:48;;;;;;;2.10;1.00;;;;;;;;;;4917018;29;20480;-71
2023/08/28 03:32:16;;;;;;;3.27;0.87;;;;;;;;;;4917096;29;20827;-69
2023/08/28 03:34:43;;;;;;;2.30;0.97;;;;;;;;;;4916641;29;20452;-69
2023/08/28 03:37:10;;;;;;;2.67;0.90;;;;;;;;;;4916254;29;20795;-70
2023/08/28 03:39:37;;;;;;;1.90;0.80;;;;;;;;;;4916930;29;20553;-70
2023/08/28 03:42:05;;;;;;;1.97;0.90;;;;;;;;;;4904198;29;20449;-70
2023/08/28 03:44:32;;;;;;;2.00;0.90;;;;;;;;;;4918221;29;20456;-70
2023/08/28 03:46:59;;;;;;;2.67;1.00;;;;;;;;;;4917468;29;20436;-68
2023/08/28 03:49:27;;;;;;;3.70;2.40;;;;;;;;;;4918120;29;20475;-69
2023/08/28 03:51:59;;;;;;;2.03;0.90;;;;;;;;;;4917139;29;20453;-69
2023/08/28 03:54:26;;;;;;;1.80;0.80;;;;;;;;;;4916113;29;20457;-70
2023/08/28 03:56:53;;;;;;;1.90;0.80;;;;;;;;;;4916124;29;20452;-71
2023/08/28 03:59:21;;;;;;;2.40;1.00;;;;;;;;;;4916673;29;20483;-70
2023/08/28 04:01:49;;;;;;;3.10;1.13;;;;;;;;;;4908720;29;20456;-71
2023/08/28 04:04:16;;;;;;;3.20;1.30;;;;;;;;;;4916259;29;20575;-70
2023/08/28 04:06:43;;;;;;;2.83;1.20;;;;;;;;;;4916023;29;20500;-70
2023/08/28 04:09:10;;;;;;;2.80;1.23;;;;;;;;;;4916269;29;20563;-70
2023/08/28 04:11:37;;;;;;;2.00;0.90;;;;;;;;;;4916439;29;20449;-71
2023/08/28 04:14:05;;;;;;;2.00;0.97;;;;;;;;;;4914952;29;20448;-70
2023/08/28 04:16:34;;;;;;;2.33;1.03;;;;;;;;;;4916463;29;20456;-71
2023/08/28 04:19:01;;;;;;;2.57;1.13;;;;;;;;;;4916599;29;20476;-71
2023/08/28 04:21:28;;;;;;;2.30;1.03;;;;;;;;;;4915906;29;20460;-70
2023/08/28 04:23:55;;;;;;;2.30;1.10;;;;;;;;;;4914755;29;20552;-70
2023/08/28 04:26:22;;;;;;;2.00;0.80;;;;;;;;;;4916512;29;20468;-71
2023/08/28 04:28:49;;;;;;;4.07;1.20;;;;;;;;;;4915524;29;20850;-70
2023/08/28 04:31:16;;;;;;;2.73;1.10;;;;;;;;;;4916170;29;20456;-69
2023/08/28 04:33:45;;;;;;;2.77;1.30;;;;;;;;;;4915560;29;20441;-71
2023/08/28 04:36:12;;;;;;;2.20;1.00;;;;;;;;;;4915999;29;20465;-71
2023/08/28 04:38:39;;;;;;;2.77;1.00;;;;;;;;;;4915909;29;20472;-70
2023/08/28 04:41:07;;;;;;;3.23;1.40;;;;;;;;;;4915512;29;21022;-71
2023/08/28 04:43:35;;;;;;;2.40;1.00;;;;;;;;;;4915694;29;20602;-72
2023/08/28 04:46:02;;;;;;;2.47;1.03;;;;;;;;;;4915435;29;20467;-70
2023/08/28 04:48:30;;;;;;;2.20;0.90;;;;;;;;;;4914841;29;20456;-70
2023/08/28 04:50:59;;;;;;;3.10;1.40;;;;;;;;;;4914304;29;20512;-71
2023/08/28 04:53:28;;;;;;;2.10;1.00;;;;;;;;;;4915740;29;20947;-70
2023/08/28 04:55:57;;;;;;;2.63;1.30;;;;;;;;;;4916137;29;20468;-71
2023/08/28 04:58:24;;;;;;;2.10;1.13;;;;;;;;;;4916107;29;20519;-70
2023/08/28 05:00:51;;;;;;;1.87;1.10;;;;;;;;;;4907465;29;20857;-71
2023/08/28 05:03:22;;;;;;;2.03;0.83;;;;;;;;;;4902428;29;20482;-69
2023/08/28 05:05:49;;;;;;;2.73;1.03;;;;;;;;;;4915464;29;20539;-69
2023/08/28 05:08:17;;;;;;;2.10;0.90;;;;;;;;;;4915449;29;20464;-70
2023/08/28 05:10:44;;;;;;;2.70;1.20;;;;;;;;;;4915615;29;20451;-68
2023/08/28 05:13:11;;;;;;;2.33;1.07;;;;;;;;;;4915543;29;20440;-69
2023/08/28 05:15:38;;;;;;;2.20;1.20;;;;;;;;;;4915361;29;20967;-70
2023/08/28 05:18:06;;;;;;;2.00;1.10;;;;;;;;;;4906313;29;20852;-68
2023/08/28 05:20:33;;;;;;;2.50;1.00;;;;;;;;;;4911165;29;20472;-69
2023/08/28 05:23:00;;;;;;;3.17;1.40;;;;;;;;;;4915239;29;20492;-70
2023/08/28 05:25:28;;;;;;;2.17;1.30;;;;;;;;;;4915394;29;20456;-70
2023/08/28 05:27:55;;;;;;;2.43;1.00;;;;;;;;;;4910452;29;20500;-70
2023/08/28 05:30:23;;;;;;;2.90;1.27;;;;;;;;;;4913866;29;20550;-70
2023/08/28 05:32:50;;;;;;;2.33;1.00;;;;;;;;;;4914711;29;20455;-71
2023/08/28 05:35:17;;;;;;;2.00;1.00;;;;;;;;;;4914182;29;20856;-70
2023/08/28 05:37:45;;;;;;;2.80;1.50;;;;;;;;;;4908003;29;20489;-70
2023/08/28 05:40:14;;;;;;;3.17;1.43;;;;;;;;;;4914480;29;20817;-70
2023/08/28 05:42:43;;;;;;;3.03;1.57;;;;;;;;;;4914624;29;20486;-70
2023/08/28 05:45:10;;;;;;;2.00;1.10;;;;;;;;;;4914810;29;20975;-70
2023/08/28 05:47:37;;;;;;;2.47;1.50;;;;;;;;;;4915318;29;20860;-71
2023/08/28 05:50:05;;;;;;;3.30;1.93;;;;;;;;;;4914228;29;20468;-70
2023/08/28 05:52:32;;;;;;;3.30;1.30;;;;;;;;;;4915033;29;20445;-70
2023/08/28 05:54:59;;;;;;;2.27;1.40;;;;;;;;;;4914729;29;20445;-70
2023/08/28 05:57:26;;;;;;;2.10;1.00;;;;;;;;;;4914325;29;20460;-70
2023/08/28 05:59:55;;;;;;;3.50;1.20;;;;;;;;;;4914568;29;20792;-71
2023/08/28 06:02:22;;;;;;;3.00;1.60;;;;;;;;;;4914770;29;20458;-69
2023/08/28 06:04:51;;;;;;;2.10;0.97;;;;;;;;;;4915085;29;20484;-68
2023/08/28 06:07:18;;;;;;;2.60;1.37;;;;;;;;;;4914860;29;20452;-69
2023/08/28 06:09:45;;;;;;;2.80;1.67;;;;;;;;;;4914380;29;20461;-69
2023/08/28 06:12:12;;;;;;;3.47;1.37;;;;;;;;;;4914791;29;20452;-69
2023/08/28 06:14:39;;;;;;;3.67;1.60;;;;;;;;;;4914576;29;20459;-68
2023/08/28 06:17:08;;;;;;;3.83;1.60;;;;;;;;;;4913503;29;20468;-68
2023/08/28 06:19:35;;;;;;;3.10;1.57;;;;;;;;;;4914268;29;20477;-68
2023/08/28 06:22:04;;;;;;;2.10;1.20;;;;;;;;;;4914716;29;20807;-70
2023/08/28 06:24:31;;;;;;;2.53;1.13;;;;;;;;;;4914773;29;20499;-69
2023/08/28 06:26:58;;;;;;;2.77;1.63;;;;;;;;;;4913930;29;20939;-68
2023/08/28 06:29:25;;;;;;;3.37;1.73;;;;;;;;;;4914466;29;20468;-69
2023/08/28 06:31:53;;;;;;;4.93;2.13;;;;;;;;;;4914619;29;20455;-68
2023/08/28 06:34:22;;;;;;;3.73;1.50;;;;;;;;;;4913507;29;20456;-69
2023/08/28 06:36:51;;;;;;;2.30;1.23;;;;;;;;;;4913999;29;20456;-69
2023/08/28 06:39:19;;;;;;;3.23;1.83;;;;;;;;;;4914458;29;20477;-68
2023/08/28 06:41:46;;;;;;;2.23;1.30;;;;;;;;;;4914584;29;20810;-69
2023/08/28 06:44:13;;;;;;;3.37;1.90;;;;;;;;;;4914734;29;20864;-69
2023/08/28 06:46:40;;;;;;;2.23;1.27;;;;;;;;;;4913831;29;20452;-69
2023/08/28 06:49:07;;;;;;;2.67;1.40;;;;;;;;;;4913196;29;20479;-68
2023/08/28 06:51:36;;;;;;;5.00;2.20;;;;;;;;;;4913060;29;20459;-69
2023/08/28 06:54:03;;;;;;;4.00;1.90;;;;;;;;;;4914175;29;20806;-69
2023/08/28 06:56:30;;;;;;;4.47;2.13;;;;;;;;;;4914000;29;20440;-69
2023/08/28 06:58:57;;;;;;;4.77;1.90;;;;;;;;;;4914609;29;20535;-69
2023/08/28 07:01:24;;;;;;;2.60;1.57;;;;;;;;;;4914517;29;20437;-68
2023/08/28 07:03:51;;;;;;;6.60;2.03;;;;;;;;;;4914624;29;20571;-68
2023/08/28 07:06:19;;;;;;;5.17;2.57;;;;;;;;;;4914822;29;20475;-69
2023/08/28 07:08:47;;;;;;;3.73;1.90;;;;;;;;;;4913764;29;20511;-68
2023/08/28 07:11:14;;;;;;;3.60;2.30;;;;;;;;;;4914320;29;20456;-68
2023/08/28 07:13:42;;;;;;;7.27;2.20;;;;;;;;;;4918057;29;20448;-69
2023/08/28 07:16:09;;;;;;;2.53;1.40;;;;;;;;;;4917574;29;20859;-68
2023/08/28 07:18:36;;;;;;;3.43;2.10;;;;;;;;;;4917255;29;20480;-68
2023/08/28 07:21:03;;;;;;;2.93;1.53;;;;;;;;;;4917641;29;20456;-68
2023/08/28 07:23:30;;;;;;;5.00;2.10;;;;;;;;;;4917828;29;20588;-69
2023/08/28 07:26:02;;;;;;;2.80;1.60;;;;;;;;;;4917208;29;20453;-68
2023/08/28 07:28:29;;;;;;;3.37;2.30;;;;;;;;;;4916220;29;20547;-67
2023/08/28 07:30:57;;;;;;;5.53;2.40;;;;;;;;;;4917512;29;20811;-67
2023/08/28 07:33:24;;;;;;;3.20;2.00;;;;;;;;;;4916818;29;20866;-67
2023/08/28 07:35:51;;;;;;;2.73;1.50;;;;;;;;;;4913744;29;20445;-68
2023/08/28 07:38:19;;;;;;;3.10;1.67;;;;;;;;;;4917095;29;20451;-68
2023/08/28 07:40:49;;;;;;;2.90;1.70;;;;;;;;;;4917242;29;20511;-68
2023/08/28 07:43:17;;;;;;;3.67;1.73;;;;;;;;;;4917030;29;20445;-67
2023/08/28 07:45:44;;;;;;;3.00;1.60;;;;;;;;;;4916030;29;20445;-68
2023/08/28 07:48:12;;;;;;;5.27;2.07;;;;;;;;;;4917130;29;20500;-68
2023/08/28 07:50:39;;;;;;;2.73;1.90;;;;;;;;;;4917011;29;20464;-68
2023/08/28 07:53:07;;;;;;;5.50;2.57;;;;;;;;;;4916285;29;20449;-68
2023/08/28 07:55:34;;;;;;;7.33;2.93;;;;;;;;;;4916353;29;20453;-68
2023/08/28 07:58:01;;;;;;;4.73;2.10;;;;;;;;;;4917078;29;20543;-69
2023/08/28 08:00:34;;;;;;;3.37;2.10;;;;;;;;;;4916750;29;20464;-66
2023/08/28 08:03:03;;;;;;;3.40;2.13;;;;;;;;;;4916026;29;20955;-68
2023/08/28 08:05:30;;;;;;;5.23;2.00;;;;;;;;;;4916387;29;20932;-68
2023/08/28 08:07:57;;;;;;;2.30;1.60;;;;;;;;;;4916793;29;20445;-68
2023/08/28 08:10:25;;;;;;;2.77;1.67;;;;;;;;;;4916740;29;20479;-67
2023/08/28 08:12:52;;;;;;;3.80;1.67;;;;;;;;;;4915847;29;20453;-68
2023/08/28 08:15:19;;;;;;;4.17;2.17;;;;;;;;;;4915625;29;20464;-68
2023/08/28 08:17:47;;;;;;;7.30;2.00;;;;;;;;;;4916362;29;20461;-68
2023/08/28 08:20:15;;;;;;;3.60;1.50;;;;;;;;;;4915833;29;20468;-68
2023/08/28 08:22:43;;;;;;;2.87;1.37;;;;;;;;;;4916218;29;20452;-68
2023/08/28 08:25:11;;;;;;;2.80;1.40;;;;;;;;;;4916546;29;20605;-68
2023/08/28 08:27:39;;;;;;;3.23;1.60;;;;;;;;;;4916599;29;20902;-69
2023/08/28 08:30:07;;;;;;;2.37;1.20;;;;;;;;;;4914004;29;20464;-68
2023/08/28 08:32:34;;;;;;;2.60;1.30;;;;;;;;;;4916090;29;20888;-69
2023/08/28 08:35:05;;;;;;;2.53;1.60;;;;;;;;;;4916025;29;20460;-69
2023/08/28 08:37:32;;;;;;;3.10;1.10;;;;;;;;;;4915595;29;20452;-68
2023/08/28 08:39:59;;;;;;;2.53;1.10;;;;;;;;;;4915578;29;20939;-69
2023/08/28 08:42:26;;;;;;;2.83;1.60;;;;;;;;;;4916356;29;20453;-69
2023/08/28 08:44:54;;;;;;;4.60;2.07;;;;;;;;;;4916131;29;20506;-70
2023/08/28 08:47:21;;;;;;;4.17;1.70;;;;;;;;;;4915484;29;20452;-69
2023/08/28 08:49:52;;;;;;;2.33;1.57;;;;;;;;;;4916050;29;20800;-69
2023/08/28 08:52:22;;;;;;;2.13;1.10;;;;;;;;;;4915701;29;20474;-69
2023/08/28 08:54:52;;;;;;;2.17;1.27;;;;;;;;;;4916318;29;20451;-68
2023/08/28 08:57:22;;;;;;;2.00;0.97;;;;;;;;;;4914635;29;20465;-69
2023/08/28 08:59:51;;;;;;;2.07;1.17;;;;;;;;;;4915866;29;21070;-69
2023/08/28 09:02:18;;;;;;;1.93;1.17;;;;;;;;;;4916154;29;20456;-70
2023/08/28 09:04:49;;;;;;;2.13;1.07;;;;;;;;;;4914971;29;20495;-69
2023/08/28 09:07:18;;;;;;;2.33;1.17;;;;;;;;;;4915515;29;20452;-69
2023/08/28 09:09:46;;;;;;;2.33;1.10;;;;;;;;;;4914843;29;20533;-69
2023/08/28 09:12:16;;;;;;;2.20;1.10;;;;;;;;;;4915733;29;20453;-69
2023/08/28 09:14:43;;;;;;;1.97;1.10;;;;;;;;;;4914965;29;20555;-68
2023/08/28 09:17:10;;;;;;;2.30;1.20;;;;;;;;;;4914826;29;20484;-69
2023/08/28 09:19:37;;;;;;;1.50;0.70;;;;;;;;;;4915632;29;20460;-69
2023/08/28 09:22:06;;;;;;;2.33;1.13;;;;;;;;;;4914721;29;20448;-68
2023/08/28 09:24:34;;;;;;;3.27;1.10;;;;;;;;;;4915021;29;20492;-68
2023/08/28 09:27:03;;;;;;;2.80;1.37;;;;;;;;;;4914477;29;20448;-70
2023/08/28 09:29:30;;;;;;;1.87;0.80;;;;;;;;;;4907723;29;20484;-69
2023/08/28 09:32:03;;;;;;;2.90;1.23;;;;;;;;;;4913310;29;20488;-69
2023/08/28 09:34:39;;;;;;;2.40;1.10;;;;;;;;;;4913744;29;20440;-69
2023/08/28 09:37:09;;;;;;;2.00;1.00;;;;;;;;;;4915188;29;20450;-70
2023/08/28 09:39:38;;;;;;;2.33;1.30;;;;;;;;;;4914593;29;20464;-70
2023/08/28 09:42:08;;;;;;;2.40;0.93;;;;;;;;;;4913076;29;20444;-69
2023/08/28 09:44:36;;;;;;;2.37;1.10;;;;;;;;;;4914712;29;20492;-69
2023/08/28 09:47:04;;;;;;;2.27;1.20;;;;;;;;;;4915290;29;20459;-69
2023/08/28 09:49:31;;;;;;;2.37;0.90;;;;;;;;;;4914876;29;21042;-70
2023/08/28 09:51:59;;;;;;;1.97;1.03;;;;;;;;;;4914033;29;20459;-70
2023/08/28 09:54:26;;;;;;;4.40;1.63;;;;;;;;;;4914361;29;20535;-69
2023/08/28 09:56:53;;;;;;;2.27;1.13;;;;;;;;;;4915537;29;20452;-71
2023/08/28 09:59:21;;;;;;;2.20;1.00;;;;;;;;;;4914786;29;20496;-71
2023/08/28 10:01:49;;;;;;;2.10;1.20;;;;;;;;;;4914755;29;20449;-69
2023/08/28 10:04:18;;;;;;;2.73;1.13;;;;;;;;;;4914303;29;20887;-72
2023/08/28 10:06:49;;;;;;;2.17;1.10;;;;;;;;;;4915055;29;20508;-69
2023/08/28 10:09:18;;;;;;;2.10;1.30;;;;;;;;;;4902329;29;20467;-69
2023/08/28 10:11:46;;;;;;;1.97;1.20;;;;;;;;;;4914449;29;20444;-70
2023/08/28 10:14:14;;;;;;;2.33;1.07;;;;;;;;;;4914457;29;20452;-70
2023/08/28 10:16:44;;;;;;;2.87;1.10;;;;;;;;;;4915028;29;20457;-70
2023/08/28 10:19:15;;;;;;;2.03;1.13;;;;;;;;;;4914559;29;20468;-70
2023/08/28 10:21:43;;;;;;;2.23;1.17;;;;;;;;;;4914608;29;20441;-69
2023/08/28 10:24:12;;;;;;;4.67;1.40;;;;;;;;;;4914650;29;20451;-71
2023/08/28 10:26:42;;;;;;;2.23;1.00;;;;;;;;;;4914755;29;20457;-72
2023/08/28 10:29:09;;;;;;;1.80;0.90;;;;;;;;;;4914589;29;20468;-69
2023/08/28 10:31:37;;;;;;;2.73;1.10;;;;;;;;;;4914864;29;20448;-72
2023/08/28 10:34:06;;;;;;;7.50;1.53;;;;;;;;;;4915950;29;20463;-70
2023/08/28 10:36:34;;;;;;;4.83;1.20;;;;;;;;;;4917246;29;20444;-70
2023/08/28 10:39:02;;;;;;;3.33;1.37;;;;;;;;;;4910004;29;20488;-71
2023/08/28 10:41:29;;;;;;;2.90;1.20;;;;;;;;;;4922848;29;20449;-70
2023/08/28 10:43:57;;;;;;;3.53;1.60;;;;;;;;;;4922482;29;20449;-69
2023/08/28 10:46:27;;;;;;;2.70;1.30;;;;;;;;;;4925411;29;20495;-69
2023/08/28 10:48:57;;;;;;;1.63;1.00;;;;;;;;;;4923808;29;20531;-70
2023/08/28 10:51:30;;;;;;;2.33;1.10;;;;;;;;;;4910392;29;20488;-71
2023/08/28 10:54:00;;;;;;;1.83;1.13;;;;;;;;;;4911999;29;20480;-70
2023/08/28 10:56:31;;;;;;;2.33;1.10;;;;;;;;;;4917460;29;20686;-70
2023/08/28 10:59:13;;;;;;;1.90;1.10;;;;;;;;;;4917811;29;20468;-71
2023/08/28 11:01:49;;;;;;;2.33;1.10;;;;;;;;;;4918402;29;20440;-71
2023/08/28 11:04:17;;;;;;;2.70;1.07;;;;;;;;;;4918261;29;20452;-72
2023/08/28 11:06:46;;;;;;;2.00;1.00;;;;;;;;;;4917415;29;20453;-71
2023/08/28 11:09:32;;;;;;;2.07;0.90;;;;;;;;;;4917186;29;20471;-72
2023/08/28 11:12:15;;;;;;;3.30;1.47;;;;;;;;;;4918080;29;20467;-70
2023/08/28 11:14:43;;;;;;;2.93;1.10;;;;;;;;;;4917205;29;20451;-70
2023/08/28 11:17:10;;;;;;;1.90;1.03;;;;;;;;;;4916528;29;20480;-72
2023/08/28 11:19:54;;;;;;;2.27;0.80;;;;;;;;;;4918128;29;20841;-72
2023/08/28 11:22:30;;;;;;;6.23;1.13;;;;;;;;;;4913862;29;20437;-71
2023/08/28 11:24:57;;;;;;;5.07;1.07;;;;;;;;;;4916917;29;20589;-72
2023/08/28 11:27:32;;;;;;;1.70;0.90;;;;;;;;;;4916863;29;20464;-70
2023/08/28 11:29:59;;;;;;;8.10;0.80;;;;;;;;;;4917012;29;20491;-69
2023/08/28 11:32:27;;;;;;;3.03;1.23;;;;;;;;;;4914680;29;20452;-69
2023/08/28 11:34:54;;;;;;;1.63;0.90;;;;;;;;;;4917272;29;20440;-71
2023/08/28 11:37:32;;;;;;;2.50;1.00;;;;;;;;;;4916204;29;20911;-71
2023/08/28 11:39:59;;;;;;;1.73;0.80;;;;;;;;;;4917321;29;20479;-70
2023/08/28 11:42:26;;;;;;;2.10;1.03;;;;;;;;;;4917453;29;20449;-70
2023/08/28 11:44:53;;;;;;;1.50;0.70;;;;;;;;;;4916224;29;20484;-71
2023/08/28 11:47:27;;;;;;;1.90;0.77;;;;;;;;;;4917535;29;20556;-71
2023/08/28 11:49:54;;;;;;;1.70;0.80;;;;;;;;;;4905146;29;20543;-70
2023/08/28 11:52:21;;;;;;;1.80;0.80;;;;;;;;;;4916843;29;20822;-71
2023/08/28 11:54:50;;;;;;;1.93;0.87;;;;;;;;;;4917442;29;20457;-70
2023/08/28 11:57:17;;;;;;;2.77;0.90;;;;;;;;;;4916988;29;20474;-69
2023/08/28 11:59:45;;;;;;;1.40;0.70;;;;;;;;;;4916687;29;21038;-70
2023/08/28 12:02:14;;;;;;;1.90;0.90;;;;;;;;;;4916395;29;20845;-70
2023/08/28 12:04:41;;;;;;;1.97;0.97;;;;;;;;;;4917020;29;20462;-72
2023/08/28 12:07:17;;;;;;;2.73;1.17;;;;;;;;;;4916592;29;20452;-70
2023/08/28 12:09:45;;;;;;;2.77;1.03;;;;;;;;;;4909125;29;20503;-71
2023/08/28 12:12:14;;;;;;;1.97;0.80;;;;;;;;;;4917048;29;20523;-70
2023/08/28 12:14:43;;;;;;;1.60;0.90;;;;;;;;;;4916692;29;20487;-70
2023/08/28 12:17:13;;;;;;;2.23;0.83;;;;;;;;;;4916836;29;20484;-70
2023/08/28 12:19:41;;;;;;;7.37;1.20;;;;;;;;;;4917169;29;20896;-70
2023/08/28 12:22:08;;;;;;;1.70;0.90;;;;;;;;;;4915589;29;20464;-71
2023/08/28 12:24:40;;;;;;;2.00;0.93;;;;;;;;;;4915667;29;20456;-72
2023/08/28 12:27:08;;;;;;;2.33;0.80;;;;;;;;;;4905024;29;20484;-71
2023/08/28 12:29:36;;;;;;;2.33;1.30;;;;;;;;;;4916265;29;20474;-72
2023/08/28 12:32:06;;;;;;;2.20;1.00;;;;;;;;;;4916660;29;20471;-70
2023/08/28 12:34:33;;;;;;;1.50;0.70;;;;;;;;;;4916770;29;20545;-70
2023/08/28 12:37:05;;;;;;;2.93;1.10;;;;;;;;;;4916657;29;20476;-70
2023/08/28 12:39:32;;;;;;;1.60;1.00;;;;;;;;;;4915619;29;20480;-70
2023/08/28 12:41:59;;;;;;;1.60;0.83;;;;;;;;;;4915429;29;20519;-70
2023/08/28 12:44:28;;;;;;;7.77;1.33;;;;;;;;;;4916126;29;20464;-70
2023/08/28 12:46:57;;;;;;;1.73;0.90;;;;;;;;;;4915202;29;20516;-71
2023/08/28 12:49:24;;;;;;;1.73;0.87;;;;;;;;;;4915920;29;20536;-71
2023/08/28 12:51:52;;;;;;;1.70;0.87;;;;;;;;;;4905418;29;20456;-71
2023/08/28 12:54:20;;;;;;;1.67;0.90;;;;;;;;;;4914125;29;20972;-72
2023/08/28 12:56:47;;;;;;;1.93;0.87;;;;;;;;;;4915998;29;20444;-71
2023/08/28 12:59:15;;;;;;;1.43;0.70;;;;;;;;;;4915013;29;20918;-71
2023/08/28 13:01:42;;;;;;;2.70;1.20;;;;;;;;;;4914927;29;20448;-69
2023/08/28 13:04:13;;;;;;;1.60;0.70;;;;;;;;;;4914029;29;20456;-71
2023/08/28 13:06:40;;;;;;;1.87;0.97;;;;;;;;;;4915644;29;20480;-70
2023/08/28 13:09:08;;;;;;;1.40;0.60;;;;;;;;;;4915115;29;20472;-69
2023/08/28 13:11:35;;;;;;;2.10;0.83;;;;;;;;;;4909034;29;20457;-70
2023/08/28 13:14:03;;;;;;;2.40;0.83;;;;;;;;;;4915878;29;20449;-70
2023/08/28 13:16:31;;;;;;;3.00;1.20;;;;;;;;;;4914133;29;20460;-70
2023/08/28 13:19:00;;;;;;;1.70;0.90;;;;;;;;;;4914058;29;20469;-70
2023/08/28 13:21:30;;;;;;;1.70;0.87;;;;;;;;;;4915481;29;20512;-69
2023/08/28 13:23:57;;;;;;;1.57;0.70;;;;;;;;;;4899962;29;20666;-70
2023/08/28 13:26:24;;;;;;;2.20;1.30;;;;;;;;;;4911986;29;20495;-70
2023/08/28 13:28:52;;;;;;;2.03;1.20;;;;;;;;;;4915313;29;20479;-71
2023/08/28 13:31:19;;;;;;;3.33;0.63;;;;;;;;;;4915427;29;20927;-70
2023/08/28 13:33:46;;;;;;;1.87;1.20;;;;;;;;;;4907732;29;20472;-71
2023/08/28 13:36:13;;;;;;;1.57;0.73;;;;;;;;;;4911630;29;20508;-70
2023/08/28 13:38:41;;;;;;;2.00;1.03;;;;;;;;;;4914967;29;20468;-70
2023/08/28 13:41:09;;;;;;;1.50;0.60;;;;;;;;;;4914978;29;20444;-71
2023/08/28 13:43:36;;;;;;;2.00;1.10;;;;;;;;;;4914877;29;20455;-70
2023/08/28 13:46:03;;;;;;;5.20;1.20;;;;;;;;;;4915105;29;20515;-69
2023/08/28 13:48:30;;;;;;;1.67;0.83;;;;;;;;;;4915424;29;20852;-70
2023/08/28 13:50:57;;;;;;;2.57;0.73;;;;;;;;;;4915331;29;20487;-70
2023/08/28 13:53:25;;;;;;;2.50;0.83;;;;;;;;;;4913902;29;20452;-70
2023/08/28 13:55:55;;;;;;;1.83;0.70;;;;;;;;;;4914584;29;20801;-70
2023/08/28 13:58:23;;;;;;;2.30;1.30;;;;;;;;;;4914909;29;20444;-71
2023/08/28 14:00:56;;;;;;;1.60;0.80;;;;;;;;;;4914730;29;20463;-70
2023/08/28 14:03:23;;;;;;;1.43;0.70;;;;;;;;;;4915036;29;20524;-70
2023/08/28 14:05:50;;;;;;;1.47;0.60;;;;;;;;;;4914977;29;20512;-71
2023/08/28 14:08:17;;;;;;;1.57;0.77;;;;;;;;;;4914633;29;20460;-70
2023/08/28 14:10:44;;;;;;;1.50;0.60;;;;;;;;;;4913901;29;20475;-73
2023/08/28 14:13:12;;;;;;;2.30;0.80;;;;;;;;;;4913565;29;20453;-71
2023/08/28 14:15:40;;;;;;;1.93;0.80;;;;;;;;;;4914458;29;20460;-71
2023/08/28 14:18:07;;;;;;;2.67;0.80;;;;;;;;;;4914405;29;20455;-70
2023/08/28 14:20:34;;;;;;;1.40;0.63;;;;;;;;;;4915781;29;20480;-69
2023/08/28 14:23:02;;;;;;;1.93;0.90;;;;;;;;;;4918505;29;20441;-70
2023/08/28 14:25:30;;;;;;;1.53;0.50;;;;;;;;;;4918499;29;20825;-71
2023/08/28 14:27:57;;;;;;;1.80;0.80;;;;;;;;;;4917524;29;20452;-69
2023/08/28 14:30:26;;;;;;;1.70;0.73;;;;;;;;;;4917459;29;20832;-71
2023/08/28 14:32:53;;;;;;;1.83;0.80;;;;;;;;;;4917414;29;21035;-71
2023/08/28 14:35:20;;;;;;;1.47;0.90;;;;;;;;;;4918755;29;20839;-71
2023/08/28 14:37:47;;;;;;;1.50;0.70;;;;;;;;;;4919015;29;20455;-71
2023/08/28 14:40:15;;;;;;;1.30;0.50;;;;;;;;;;4918603;29;20484;-71
2023/08/28 14:42:44;;;;;;;1.90;0.70;;;;;;;;;;4918461;29;20887;-70
2023/08/28 14:45:11;;;;;;;1.50;0.70;;;;;;;;;;4918109;29;20455;-70
2023/08/28 14:47:40;;;;;;;2.40;1.40;;;;;;;;;;4916778;29;20567;-71
2023/08/28 14:50:07;;;;;;;1.60;0.80;;;;;;;;;;4916995;29;20468;-71